KTOI

Troy Municipal at N Kenneth Campbell Field Airport

Troy, Alabama, USA
KTOI 182335Z 1900/1924 00000KT P6SM BKN250 FM191500 12005KT P6SM BKN250
Issued Valid From Valid To
Dec-18 @ 23:35 UTC
(40 minutes ago)
Dec-19 @ 00:00 UTC
(15 minutes ago)
Dec-20 @ 00:00 UTC
(in 24 hours)
Dec-19 @ 00:00 to Dec-19 @ 15:00
KTOI 182335Z 1900/1924 00000KT P6SM BKN250
Visibility Clouds
Greater than 6 miles
  • Broken at 25,000' AGL
From Dec-19 @ 15:00 to Dec-20 @ 00:00
FM191500 12005KT P6SM BKN250
Wind Visibility Clouds
120° at 5 knots Greater than 6 miles
  • Broken at 25,000' AGL
KTOI 182335Z 1900/1924 00000KT P6SM BKN250 FM191500 12005KT P6SM BKN250
Issued Dec-18 @ 23:35 UTC
(40 minutes ago)
Valid From Dec-19 @ 00:00 UTC
(15 minutes ago)
Valid To Dec-20 @ 00:00 UTC
(in 24 hours)
Dec-19 @ 00:00 - Dec-19 @ 15:00
Clouds
  • Broken at 25,000' AGL
From Dec-19 @ 15:00 - Dec-20 @ 00:00
Wind Visibility
120° at 5 knots Greater than 6 miles
Clouds
  • Broken at 25,000' AGL